Time;durP1;ratioP1;P1;durP2;ratioP2;P2;SDS_P1;SDS_P2;PMS_P1;PMS_P2;Temp;Humidity;BMP_temperature;BMP_pressure;BME280_temperature;BME280_humidity;BME280_pressure;Samples;Min_cycle;Max_cycle;Signal;HPM_P1;HPM_P2
2022/09/04 00:01:39;;;;;;;;;;;;;;;23.13;43.97;101205.88;5072137;28;20439;-68
2022/09/04 00:04:42;;;;;;;8.65;5.90;;;;;;;23.12;44.41;101214.28;5072554;28;19962;-68
2022/09/04 00:07:31;;;;;;;7.15;5.75;;;;;;;23.10;44.38;101213.59;5071773;28;20549;-68
2022/09/04 00:10:28;;;;;;;7.60;6.25;;;;;;;23.05;44.59;101219.63;5073056;28;20401;-68
2022/09/04 00:13:09;;;;;;;8.13;5.82;;;;;;;23.01;44.76;101221.00;5091526;28;20051;-68
2022/09/04 00:16:08;;;;;;;7.30;5.57;;;;;;;22.97;44.94;101227.00;5071718;28;20373;-69
2022/09/04 00:18:54;;;;;;;10.00;5.85;;;;;;;22.95;44.65;101232.69;5071024;28;20040;-69
2022/09/04 00:21:23;;;;;;;7.13;5.47;;;;;;;22.91;44.96;101239.53;5071764;28;20049;-67
2022/09/04 00:24:04;;;;;;;6.97;5.97;;;;;;;22.84;45.36;101238.56;5071298;28;20490;-69
2022/09/04 00:26:56;;;;;;;8.63;5.75;;;;;;;22.74;44.96;101246.09;5076987;28;20044;-68
2022/09/04 00:29:35;;;;;;;8.07;5.88;;;;;;;22.65;45.17;101236.22;5078232;28;20041;-68
2022/09/04 00:32:37;;;;;;;10.05;6.78;;;;;;;22.58;45.11;101246.19;5082738;28;20040;-68
2022/09/04 00:35:23;;;;;;;7.40;5.75;;;;;;;22.53;45.46;101235.78;5071385;28;20115;-68
2022/09/04 00:38:09;;;;;;;11.48;7.15;;;;;;;22.48;45.77;101238.19;5071115;28;20048;-68
2022/09/04 00:40:41;;;;;;;8.05;6.68;;;;;;;22.42;45.77;101238.91;5071081;28;20056;-68
2022/09/04 00:43:22;;;;;;;9.18;6.65;;;;;;;22.40;46.15;101241.81;5071122;28;20375;-68
2022/09/04 00:45:59;;;;;;;14.10;7.85;;;;;;;22.39;45.97;101247.47;5079669;28;20040;-68
2022/09/04 00:48:55;;;;;;;8.52;6.88;;;;;;;22.37;46.01;101244.91;5059939;28;20048;-68
2022/09/04 00:51:31;;;;;;;6.38;5.78;;;;;;;22.38;46.27;101253.97;5083882;28;20039;-68
2022/09/04 00:54:31;;;;;;;7.35;6.55;;;;;;;22.36;46.09;101245.94;5090711;28;20032;-69
2022/09/04 00:57:04;;;;;;;8.48;7.30;;;;;;;22.33;45.96;101246.28;5083477;28;20090;-68
2022/09/04 00:59:33;;;;;;;8.52;6.85;;;;;;;22.28;46.05;101258.75;5071285;28;20040;-68
2022/09/04 01:02:10;;;;;;;8.25;6.55;;;;;;;22.23;46.57;101252.94;5072038;28;20490;-69
2022/09/04 01:04:50;;;;;;;9.95;6.72;;;;;;;22.22;46.45;101251.25;5090959;28;20119;-68
2022/09/04 01:07:38;;;;;;;7.20;6.50;;;;;;;22.20;46.53;101254.16;5067777;28;20521;-68
2022/09/04 01:10:23;;;;;;;8.05;7.00;;;;;;;22.19;46.80;101257.91;5083761;28;20044;-68
2022/09/04 01:13:01;;;;;;;9.13;6.90;;;;;;;22.20;46.71;101265.94;5087203;28;20038;-68
2022/09/04 01:15:56;;;;;;;9.13;8.10;;;;;;;22.16;46.68;101272.78;5072132;28;20064;-68
2022/09/04 01:18:29;;;;;;;11.25;7.78;;;;;;;22.13;46.63;101273.13;5090413;28;20046;-68
2022/09/04 01:21:13;;;;;;;9.75;8.23;;;;;;;22.09;47.05;101265.47;5095182;28;20034;-67
2022/09/04 01:24:18;;;;;;;9.00;7.95;;;;;;;22.07;47.08;101273.84;5078729;28;20583;-69
2022/09/04 01:27:08;;;;;;;8.90;7.93;;;;;;;22.06;46.91;101274.00;5034003;28;20053;-69
2022/09/04 01:29:45;;;;;;;9.00;7.55;;;;;;;22.03;47.06;101277.09;5056959;28;20041;-69
2022/09/04 01:32:36;;;;;;;9.48;8.38;;;;;;;21.99;47.36;101276.56;5077535;28;20478;-68
2022/09/04 01:35:31;;;;;;;9.27;8.00;;;;;;;21.96;47.59;101279.63;5089865;28;20123;-68
2022/09/04 01:38:05;;;;;;;10.05;8.05;;;;;;;21.97;47.42;101286.81;5089818;28;20054;-68
2022/09/04 01:40:52;;;;;;;12.55;8.23;;;;;;;21.97;47.66;101283.22;5093151;28;20040;-68
2022/09/04 01:43:21;;;;;;;10.90;8.88;;;;;;;21.94;47.39;101286.31;5074253;28;20040;-68
2022/09/04 01:46:07;;;;;;;10.10;8.40;;;;;;;21.88;48.07;101290.56;5074451;28;20040;-68
2022/09/04 01:48:48;;;;;;;10.48;8.23;;;;;;;21.85;47.96;101291.78;5093115;28;20101;-68
2022/09/04 01:51:31;;;;;;;9.18;6.75;;;;;;;21.79;47.92;101286.13;5082201;28;20039;-68
2022/09/04 01:54:16;;;;;;;8.45;7.30;;;;;;;21.68;47.56;101297.41;5074317;28;20052;-68
2022/09/04 01:57:18;;;;;;;10.38;8.32;;;;;;;21.62;47.99;101300.84;5074224;28;20041;-68
2022/09/04 02:00:09;;;;;;;11.10;7.40;;;;;;;21.59;48.01;101298.44;5037922;28;20414;-68
2022/09/04 02:02:43;;;;;;;9.68;7.88;;;;;;;21.56;47.65;101300.50;5074032;28;20041;-68
2022/09/04 02:05:17;;;;;;;10.93;7.90;;;;;;;21.55;47.88;101301.50;5074222;28;20116;-68
2022/09/04 02:07:52;;;;;;;9.35;8.27;;;;;;;21.54;48.48;101305.22;5075288;28;20045;-68
2022/09/04 02:10:35;;;;;;;12.80;8.40;;;;;;;21.52;48.28;101311.91;5074208;28;20048;-68
2022/09/04 02:13:06;;;;;;;9.50;8.55;;;;;;;21.55;48.51;101315.19;5079031;28;20044;-68
2022/09/04 02:15:32;;;;;;;8.88;7.97;;;;;;;21.54;48.48;101312.59;5094512;28;20075;-68
2022/09/04 02:18:18;;;;;;;10.10;9.00;;;;;;;21.53;48.53;101309.00;5089624;28;20029;-68
2022/09/04 02:20:53;;;;;;;8.35;7.45;;;;;;;21.52;48.46;101315.47;5065277;28;20121;-68
2022/09/04 02:23:28;;;;;;;8.88;7.90;;;;;;;21.50;48.44;101316.66;5088541;28;20135;-68
2022/09/04 02:26:03;;;;;;;8.63;7.55;;;;;;;21.47;48.33;101331.53;5094253;28;20584;-68
2022/09/04 02:28:54;;;;;;;8.68;7.72;;;;;;;21.44;48.67;101320.94;5084663;28;20036;-68
2022/09/04 02:31:33;;;;;;;9.25;7.65;;;;;;;21.43;48.55;101321.09;5073841;28;20032;-68
2022/09/04 02:34:08;;;;;;;9.43;8.32;;;;;;;21.38;48.64;101329.81;5091155;28;20434;-68
2022/09/04 02:36:40;;;;;;;10.32;8.85;;;;;;;21.36;48.78;101331.00;5094199;28;20054;-68
2022/09/04 02:39:29;;;;;;;10.43;8.45;;;;;;;21.32;48.96;101330.47;5083328;28;20050;-67
2022/09/04 02:42:20;;;;;;;11.23;8.32;;;;;;;21.33;48.74;101334.91;5074363;28;20037;-68
2022/09/04 02:45:06;;;;;;;10.32;8.57;;;;;;;21.30;48.95;101343.44;5058346;28;20102;-68
2022/09/04 02:47:46;;;;;;;10.30;8.95;;;;;;;21.27;49.12;101342.94;5073726;28;20040;-68
2022/09/04 02:50:50;;;;;;;9.77;8.77;;;;;;;21.22;48.90;101338.81;5073081;28;20033;-68
2022/09/04 02:53:35;;;;;;;10.98;8.93;;;;;;;21.21;49.09;101342.53;5076940;28;20051;-69
2022/09/04 02:56:37;;;;;;;10.50;8.85;;;;;;;21.21;48.98;101350.72;5092998;28;20489;-68
2022/09/04 02:59:29;;;;;;;11.73;8.45;;;;;;;21.16;49.08;101347.66;5063090;28;20058;-68
2022/09/04 03:01:59;;;;;;;8.70;7.00;;;;;;;21.14;48.94;101346.94;5079055;28;20109;-68
2022/09/04 03:04:40;;;;;;;9.70;7.93;;;;;;;21.14;49.01;101348.81;5072666;28;20405;-68
2022/09/04 03:07:19;;;;;;;9.77;8.52;;;;;;;21.11;49.23;101352.75;5072803;28;20036;-68
2022/09/04 03:09:52;;;;;;;12.23;9.40;;;;;;;21.11;49.18;101355.47;5072539;28;20056;-68
2022/09/04 03:12:42;;;;;;;10.43;9.30;;;;;;;21.10;49.93;101351.03;5072397;28;20389;-68
2022/09/04 03:15:49;;;;;;;10.90;8.80;;;;;;;21.10;49.61;101350.19;5087740;28;20047;-68
2022/09/04 03:18:25;;;;;;;10.35;9.20;;;;;;;21.10;49.86;101351.03;5059215;28;20078;-68
2022/09/04 03:21:08;;;;;;;11.13;9.98;;;;;;;21.10;49.95;101352.91;5072609;28;20037;-68
2022/09/04 03:23:50;;;;;;;13.05;9.77;;;;;;;21.09;49.94;101353.94;5087539;28;20043;-68
2022/09/04 03:26:34;;;;;;;16.05;10.10;;;;;;;21.09;50.35;101353.94;5073095;28;20040;-69
2022/09/04 03:29:13;;;;;;;15.32;9.90;;;;;;;21.08;50.28;101358.53;5072434;28;20037;-68
2022/09/04 03:31:58;;;;;;;13.63;9.93;;;;;;;21.08;50.15;101357.69;5088613;28;20043;-69
2022/09/04 03:34:37;;;;;;;13.13;10.43;;;;;;;21.07;50.05;101355.97;5072427;28;20405;-69
2022/09/04 03:37:32;;;;;;;13.75;10.93;;;;;;;21.09;50.27;101357.53;5072042;28;20056;-68
2022/09/04 03:40:05;;;;;;;13.15;10.48;;;;;;;21.10;50.38;101350.19;5072088;28;20402;-68
2022/09/04 03:42:53;;;;;;;15.18;11.23;;;;;;;21.11;50.20;101358.22;5072838;28;20040;-68
2022/09/04 03:45:22;;;;;;;14.77;10.77;;;;;;;21.12;50.14;101359.91;5084996;28;20145;-68
2022/09/04 03:48:10;;;;;;;14.43;10.25;;;;;;;21.12;50.45;101356.34;5078981;28;20040;-68
2022/09/04 03:50:59;;;;;;;12.13;10.43;;;;;;;21.12;50.48;101359.06;5091839;28;20128;-68
2022/09/04 03:53:50;;;;;;;13.90;10.10;;;;;;;21.11;50.32;101362.81;5091495;28;20044;-68
2022/09/04 03:56:27;;;;;;;12.38;9.63;;;;;;;21.09;50.26;101362.97;5087673;28;20422;-68
2022/09/04 03:59:07;;;;;;;14.00;10.10;;;;;;;21.06;50.49;101360.59;5083861;28;20040;-68
2022/09/04 04:01:45;;;;;;;13.48;9.48;;;;;;;21.05;50.24;101368.94;5072173;28;20051;-69
2022/09/04 04:04:34;;;;;;;12.88;10.13;;;;;;;21.04;50.65;101370.81;5071788;28;20490;-69
2022/09/04 04:07:27;;;;;;;12.63;9.82;;;;;;;21.01;50.30;101383.94;5078590;28;20050;-68
2022/09/04 04:10:22;;;;;;;12.00;9.75;;;;;;;21.00;50.62;101379.50;5091853;28;20131;-69
2022/09/04 04:13:32;;;;;;;12.95;10.02;;;;;;;20.96;50.65;101373.50;5087402;28;20086;-68
2022/09/04 04:16:08;;;;;;;16.25;10.82;;;;;;;20.96;50.35;101380.84;5085586;28;20405;-68
2022/09/04 04:19:07;;;;;;;11.43;9.70;;;;;;;20.90;50.71;101383.22;5072743;28;20127;-69
2022/09/04 04:21:53;;;;;;;16.33;10.25;;;;;;;20.90;50.81;101390.53;5087317;28;20040;-69
2022/09/04 04:24:37;;;;;;;13.75;10.15;;;;;;;20.87;50.53;101386.25;5080973;28;20117;-68
2022/09/04 04:27:32;;;;;;;12.43;9.82;;;;;;;20.84;50.65;101388.47;5072127;28;20443;-68
2022/09/04 04:30:15;;;;;;;11.32;9.50;;;;;;;20.82;50.86;101393.22;5076395;28;20118;-69
2022/09/04 04:33:12;;;;;;;18.80;11.07;;;;;;;20.78;50.70;101392.66;5079808;28;20051;-67
2022/09/04 04:36:08;;;;;;;13.48;10.55;;;;;;;20.75;50.79;101406.63;5071707;28;20420;-68
2022/09/04 04:38:59;;;;;;;15.65;10.93;;;;;;;20.72;50.79;101409.69;5080650;28;20398;-68
2022/09/04 04:42:04;;;;;;;13.50;10.80;;;;;;;20.68;50.98;101404.72;5091703;28;20048;-68
2022/09/04 04:48:25;;;;;;;13.98;9.93;;;;;;;20.63;50.99;101413.38;5091009;28;20044;-68
2022/09/04 04:51:39;;;;;;;14.75;10.13;;;;;;;20.61;50.69;101415.41;5076346;28;20371;-68
2022/09/04 04:54:44;;;;;;;14.20;11.07;;;;;;;20.57;50.83;101412.16;5091907;28;20039;-69
2022/09/04 04:57:17;;;;;;;16.50;11.52;;;;;;;20.55;51.02;101416.91;5082057;28;20028;-69
2022/09/04 04:59:54;;;;;;;12.27;10.82;;;;;;;20.51;51.22;101414.66;5083570;28;20044;-69
2022/09/04 05:02:34;;;;;;;13.13;11.10;;;;;;;20.50;51.20;101422.00;5057749;28;20364;-69
2022/09/04 05:05:14;;;;;;;15.38;10.57;;;;;;;20.48;51.36;101420.44;5075571;28;20494;-69
2022/09/04 05:08:32;;;;;;;13.13;10.35;;;;;;;20.46;51.44;101422.47;5095406;28;20036;-69
2022/09/04 05:11:25;;;;;;;18.30;10.18;;;;;;;20.46;51.46;101433.41;5041001;28;20402;-69
2022/09/04 05:14:37;;;;;;;12.77;11.00;;;;;;;20.46;51.46;101433.41;5075548;28;20044;-69
2022/09/04 05:17:42;;;;;;;13.98;11.23;;;;;;;20.46;51.56;101441.56;5089686;28;20044;-69
2022/09/04 05:20:27;;;;;;;15.85;11.35;;;;;;;20.45;51.38;101448.06;5095407;28;20504;-69
2022/09/04 05:23:33;;;;;;;15.87;10.13;;;;;;;20.46;51.57;101455.22;5095591;28;20486;-69
2022/09/04 05:26:15;;;;;;;12.55;9.88;;;;;;;20.48;51.57;101462.22;5095245;28;20143;-69
2022/09/04 05:29:00;;;;;;;16.75;10.85;;;;;;;20.45;51.56;101457.09;5091251;28;20051;-69
2022/09/04 05:31:51;;;;;;;15.60;10.70;;;;;;;20.42;51.49;101464.75;5075150;28;20075;-69
2022/09/04 05:35:00;;;;;;;15.38;11.75;;;;;;;20.40;51.76;101464.91;5075268;28;20036;-69
2022/09/04 05:37:58;;;;;;;17.88;12.30;;;;;;;20.39;51.66;101463.19;5080811;28;20032;-69
2022/09/04 05:41:11;;;;;;;18.92;12.30;;;;;;;20.42;51.69;101472.91;5006552;28;20054;-69
2022/09/04 05:43:48;;;;;;;15.63;11.43;;;;;;;20.45;51.79;101478.06;5095398;28;20044;-69
2022/09/04 05:47:01;;;;;;;15.45;11.80;;;;;;;20.44;52.07;101481.81;5095879;28;20066;-69
2022/09/04 05:49:40;;;;;;;14.23;10.10;;;;;;;20.47;52.03;101484.22;5050292;28;20048;-69
2022/09/04 05:52:25;;;;;;;14.20;11.70;;;;;;;20.46;51.85;101487.97;5094447;28;20051;-69
2022/09/04 05:55:10;;;;;;;14.85;11.68;;;;;;;20.49;52.23;101490.38;5093185;28;20089;-69
2022/09/04 05:57:51;;;;;;;17.80;12.80;;;;;;;20.54;52.06;101490.75;5094563;28;20040;-69
2022/09/04 06:00:19;;;;;;;15.63;12.18;;;;;;;20.58;52.15;101495.75;5076343;28;20051;-70
2022/09/04 06:03:28;;;;;;;22.05;11.85;;;;;;;20.59;52.53;101502.06;5072139;28;20040;-70
2022/09/04 06:06:11;;;;;;;17.63;13.55;;;;;;;20.65;52.52;101508.75;5056044;28;20056;-69
2022/09/04 06:08:55;;;;;;;16.48;12.40;;;;;;;20.69;52.45;101505.56;5073013;28;20040;-69
2022/09/04 06:11:50;;;;;;;18.92;14.05;;;;;;;20.74;53.05;101516.00;5073956;28;20044;-68
2022/09/04 06:14:43;;;;;;;22.17;15.30;;;;;;;20.78;52.81;101504.59;5074252;28;20041;-69
2022/09/04 06:17:27;;;;;;;19.77;14.55;;;;;;;20.83;53.16;101509.59;5065869;28;20503;-68
2022/09/04 06:20:08;;;;;;;22.38;15.30;;;;;;;20.85;52.98;101502.97;5088381;28;20045;-68
2022/09/04 06:23:08;;;;;;;18.48;15.30;;;;;;;20.86;53.34;101507.41;5082031;28;20041;-68
2022/09/04 06:26:11;;;;;;;26.85;16.70;;;;;;;20.87;53.84;101506.41;5073978;28;20417;-69
2022/09/04 06:29:02;;;;;;;19.42;14.80;;;;;;;20.88;53.50;101516.31;5073699;28;20049;-68
2022/09/04 06:31:40;;;;;;;19.52;14.82;;;;;;;20.93;53.96;101511.22;5073363;28;20043;-68
2022/09/04 06:34:23;;;;;;;21.33;15.48;;;;;;;21.00;53.95;101513.31;5073757;28;20094;-68
2022/09/04 06:36:50;;;;;;;22.05;15.88;;;;;;;21.08;53.61;101525.13;5074756;28;20029;-68
2022/09/04 06:39:39;;;;;;;22.08;15.70;;;;;;;21.16;54.26;101522.47;5073736;28;20040;-68
2022/09/04 06:42:30;;;;;;;15.80;13.60;;;;;;;21.27;54.35;101528.69;5073176;28;20045;-68
2022/09/04 06:44:57;;;;;;;23.25;15.23;;;;;;;21.39;54.54;101530.13;5055437;28;20041;-67
2022/09/04 06:47:39;;;;;;;17.67;14.45;;;;;;;21.49;54.65;101534.44;5055557;28;20410;-68
2022/09/04 06:50:25;;;;;;;17.83;14.60;;;;;;;21.62;54.65;101531.31;5073668;28;20032;-67
2022/09/04 06:52:51;;;;;;;15.95;13.05;;;;;;;21.75;54.49;101537.16;5075753;28;20487;-68
2022/09/04 06:55:22;;;;;;;18.60;13.48;;;;;;;21.87;54.71;101538.56;5073821;28;20070;-68
2022/09/04 06:58:11;;;;;;;21.13;13.93;;;;;;;22.01;54.71;101538.94;5073117;28;20490;-68
2022/09/04 07:01:14;;;;;;;17.35;13.30;;;;;;;22.16;54.50;101537.31;5073150;28;20131;-68
2022/09/04 07:03:56;;;;;;;16.23;11.55;;;;;;;22.33;54.57;101540.97;5042700;28;20456;-68
2022/09/04 07:06:46;;;;;;;15.07;12.95;;;;;;;22.47;54.34;101538.41;5073218;28;20040;-68
2022/09/04 07:09:19;;;;;;;16.35;12.98;;;;;;;22.65;54.12;101538.25;5073818;28;20398;-68
2022/09/04 07:12:14;;;;;;;13.65;11.52;;;;;;;22.81;54.37;101542.91;5093072;28;20123;-68
2022/09/04 07:15:23;;;;;;;13.73;12.18;;;;;;;22.97;54.13;101544.78;5085254;28;20033;-68
2022/09/04 07:18:03;;;;;;;15.93;11.15;;;;;;;23.10;54.21;101551.47;5093018;28;20513;-68
2022/09/04 07:20:53;;;;;;;16.05;11.13;;;;;;;23.28;53.78;101554.00;5079887;28;20529;-68
2022/09/04 07:23:39;;;;;;;14.68;10.88;;;;;;;23.41;53.74;101557.03;5072669;28;20032;-68
2022/09/04 07:26:32;;;;;;;11.95;10.45;;;;;;;23.58;53.79;101559.78;5055350;28;20040;-68
2022/09/04 07:29:29;;;;;;;14.10;9.90;;;;;;;23.78;53.78;101561.06;5072653;28;20149;-68
2022/09/04 07:32:14;;;;;;;12.95;9.57;;;;;;;23.96;53.45;101560.84;5072490;28;20039;-68
2022/09/04 07:34:40;;;;;;;15.48;9.68;;;;;;;24.16;53.57;101567.59;5072598;28;20062;-68
2022/09/04 07:37:39;;;;;;;16.30;9.85;;;;;;;24.41;53.11;101562.81;5072437;28;20044;-68
2022/09/04 07:40:23;;;;;;;11.38;9.88;;;;;;;24.61;52.79;101566.84;5054488;28;20061;-68
2022/09/04 07:43:38;;;;;;;11.25;9.38;;;;;;;24.77;52.29;101565.84;5072456;28;20055;-68
2022/09/04 07:46:32;;;;;;;10.13;8.95;;;;;;;24.97;52.22;101568.94;5046153;28;20048;-68
2022/09/04 07:49:08;;;;;;;13.88;9.27;;;;;;;25.19;51.81;101570.81;5091446;28;20501;-69
2022/09/04 07:51:46;;;;;;;11.13;8.55;;;;;;;25.33;51.54;101569.16;5092735;28;20043;-69
2022/09/04 07:54:29;;;;;;;14.40;8.93;;;;;;;25.52;51.41;101574.09;5092732;28;20040;-70
2022/09/04 07:56:56;;;;;;;10.75;9.32;;;;;;;25.67;50.98;101571.38;5089720;28;20036;-69
2022/09/04 07:59:41;;;;;;;11.15;9.00;;;;;;;25.80;50.78;101571.56;5072370;28;20045;-69
2022/09/04 08:02:32;;;;;;;10.57;8.82;;;;;;;25.94;50.61;101570.69;5079120;28;20052;-69
2022/09/04 08:05:03;;;;;;;15.43;9.63;;;;;;;26.19;50.46;101573.97;5072344;28;20037;-69
2022/09/04 08:07:33;;;;;;;10.88;8.80;;;;;;;26.38;50.15;101578.03;5075288;28;20036;-69
2022/09/04 08:10:20;;;;;;;11.52;10.32;;;;;;;26.54;49.97;101583.31;5092441;28;20114;-68
2022/09/04 08:13:17;;;;;;;13.05;9.18;;;;;;;26.65;49.78;101579.19;5091912;28;20048;-69
2022/09/04 08:15:59;;;;;;;11.75;8.93;;;;;;;26.78;49.38;101587.59;5072231;28;20533;-68
2022/09/04 08:18:53;;;;;;;12.30;9.00;;;;;;;26.92;49.13;101583.06;5072038;28;20449;-69
2022/09/04 08:21:32;;;;;;;10.48;8.60;;;;;;;27.10;48.75;101588.13;5071812;28;20044;-69
2022/09/04 08:24:20;;;;;;;11.32;9.05;;;;;;;27.25;48.47;101593.53;5072296;28;20475;-68
2022/09/04 08:26:50;;;;;;;9.35;8.07;;;;;;;27.35;48.35;101596.81;5072146;28;20045;-69
2022/09/04 08:29:25;;;;;;;12.10;8.35;;;;;;;27.46;47.97;101599.00;5066943;28;20487;-69
2022/09/04 08:32:27;;;;;;;10.18;8.45;;;;;;;27.56;47.51;101591.25;5071573;28;20049;-69
2022/09/04 08:35:28;;;;;;;10.35;8.10;;;;;;;27.72;47.48;101593.72;5063291;28;20139;-68
2022/09/04 08:38:33;;;;;;;10.05;6.82;;;;;;;27.89;47.04;101597.00;5072395;28;20048;-69
2022/09/04 08:41:22;;;;;;;8.50;6.05;;;;;;;28.08;46.75;101598.13;5060342;28;20047;-69
2022/09/04 08:44:14;;;;;;;7.80;6.50;;;;;;;28.24;46.47;101603.38;5078707;28;20055;-69
2022/09/04 08:46:47;;;;;;;8.07;7.25;;;;;;;28.38;45.99;101598.72;5075912;28;20040;-69
2022/09/04 08:49:27;;;;;;;7.60;6.63;;;;;;;28.47;45.79;101606.63;5092536;28;20498;-69
2022/09/04 08:52:09;;;;;;;8.20;6.15;;;;;;;28.64;45.39;101607.09;5091618;28;20044;-69
2022/09/04 08:54:56;;;;;;;9.98;6.82;;;;;;;28.83;45.13;101604.56;5086596;28;20040;-69
2022/09/04 08:57:35;;;;;;;8.18;7.38;;;;;;;28.97;45.08;101606.31;5081549;28;20048;-69
2022/09/04 09:00:15;;;;;;;9.55;7.78;;;;;;;29.10;44.65;101609.13;5073178;28;20417;-68
2022/09/04 09:03:04;;;;;;;12.38;6.97;;;;;;;29.32;44.61;101609.75;5071524;28;20040;-69
2022/09/04 09:05:54;;;;;;;7.50;6.28;;;;;;;29.55;44.09;101612.09;5071503;28;20123;-69
2022/09/04 09:08:57;;;;;;;9.43;7.20;;;;;;;29.74;43.73;101602.91;5071659;28;20040;-69
2022/09/04 09:11:48;;;;;;;7.43;5.70;;;;;;;29.85;43.21;101606.94;5071761;28;20043;-69
2022/09/04 09:14:52;;;;;;;8.18;6.53;;;;;;;29.95;42.90;101602.63;5071608;28;20052;-68
2022/09/04 09:17:38;;;;;;;7.35;5.40;;;;;;;30.04;42.53;101597.75;5071285;28;20045;-68
2022/09/04 09:20:26;;;;;;;9.30;5.53;;;;;;;30.15;42.36;101601.75;5071903;28;20051;-68
2022/09/04 09:23:23;;;;;;;8.50;4.57;;;;;;;30.24;41.96;101600.41;5091627;28;20041;-69
2022/09/04 09:26:08;;;;;;;6.30;4.55;;;;;;;30.32;41.88;101589.94;5091923;28;20123;-69
2022/09/04 09:28:53;;;;;;;6.47;4.80;;;;;;;30.42;41.78;101594.13;5091939;28;20489;-70
2022/09/04 09:31:38;;;;;;;;;;;;;;;30.48;41.72;101598.84;5092200;28;20152;-69
2022/09/04 09:34:38;;;;;;;8.38;5.07;;;;;;;30.56;41.40;101595.78;5091925;28;19970;-69
2022/09/04 09:37:14;;;;;;;7.95;5.97;;;;;;;30.60;41.19;101600.69;5055408;28;20422;-69
2022/09/04 09:40:13;;;;;;;6.43;4.78;;;;;;;30.67;40.65;101592.34;5078319;28;20051;-69
2022/09/04 09:43:08;;;;;;;7.15;4.90;;;;;;;30.83;40.66;101599.25;5092592;28;20051;-69
2022/09/04 09:45:54;;;;;;;7.40;5.20;;;;;;;30.99;40.21;101596.78;5095648;28;20512;-70
2022/09/04 09:48:55;;;;;;;6.05;4.30;;;;;;;31.07;40.10;101594.81;5095151;28;20093;-69
2022/09/04 09:51:50;;;;;;;8.27;5.25;;;;;;;31.24;39.73;101596.84;5095140;28;20398;-69
2022/09/04 09:54:50;;;;;;;7.72;4.93;;;;;;;31.31;39.06;101591.25;5088350;28;20072;-69
2022/09/04 09:57:58;;;;;;;8.43;5.65;;;;;;;31.33;38.93;101594.63;5087881;28;20059;-69
2022/09/04 10:00:37;;;;;;;6.95;4.72;;;;;;;31.35;39.17;101592.47;5095265;28;20036;-70
2022/09/04 10:03:31;;;;;;;6.70;4.30;;;;;;;31.35;38.98;101603.59;5095317;28;20036;-69
2022/09/04 10:06:38;;;;;;;6.80;4.97;;;;;;;31.40;38.74;101597.34;5094897;28;20056;-69
2022/09/04 10:09:23;;;;;;;7.80;4.70;;;;;;;31.45;38.53;101595.59;5087412;28;20045;-69
2022/09/04 10:12:44;;;;;;;8.60;6.22;;;;;;;31.55;38.36;101598.69;5074550;28;20055;-69
2022/09/04 10:15:47;;;;;;;6.00;3.33;;;;;;;31.72;38.08;101592.56;4993016;28;20496;-70
2022/09/04 10:18:48;;;;;;;6.90;3.97;;;;;;;31.97;38.03;101595.28;5053299;28;20107;-70
2022/09/04 10:21:37;;;;;;;8.20;5.53;;;;;;;32.11;37.64;101600.44;5053269;28;20037;-69
2022/09/04 10:24:37;;;;;;;9.57;4.57;;;;;;;32.21;37.22;101599.88;5054549;28;20041;-70
2022/09/04 10:27:07;;;;;;;4.55;3.42;;;;;;;32.31;36.90;101599.38;5054673;28;20064;-70
2022/09/04 10:30:00;;;;;;;4.35;3.38;;;;;;;32.39;36.68;101596.25;5054242;28;20402;-70
2022/09/04 10:32:31;;;;;;;5.30;3.17;;;;;;;32.56;36.75;101600.06;5051234;28;20095;-70
2022/09/04 10:35:24;;;;;;;6.35;3.38;;;;;;;32.70;36.13;101601.59;5054569;28;20041;-69
2022/09/04 10:38:05;;;;;;;6.22;4.60;;;;;;;32.78;35.80;101604.06;5052796;28;20045;-70
2022/09/04 10:40:57;;;;;;;4.82;3.35;;;;;;;32.82;35.70;101608.06;5053076;28;20051;-70
2022/09/04 10:43:52;;;;;;;4.72;3.65;;;;;;;32.72;35.36;101609.69;5053996;28;20029;-71
2022/09/04 10:46:38;;;;;;;;;;;;;;;32.60;35.91;101614.34;5053554;28;20044;-70
2022/09/04 10:49:14;;;;;;;8.88;4.68;;;;;;;32.43;35.78;101609.44;5051896;28;19928;-70
2022/09/04 10:51:59;;;;;;;4.75;3.65;;;;;;;32.36;35.71;101602.28;5066553;28;20040;-70
2022/09/04 10:55:03;;;;;;;4.03;2.83;;;;;;;32.34;35.68;101598.88;5072355;28;20043;-69
2022/09/04 10:57:55;;;;;;;3.55;2.22;;;;;;;32.38;35.72;101594.56;5072403;28;20412;-70
2022/09/04 11:00:34;;;;;;;5.65;2.50;;;;;;;32.30;35.43;101597.66;5054063;28;20118;-70
2022/09/04 11:03:26;;;;;;;4.15;2.30;;;;;;;32.21;35.38;101595.19;5052517;28;20117;-70
2022/09/04 11:06:11;;;;;;;5.15;2.30;;;;;;;32.14;35.15;101599.13;5052944;28;20041;-69
2022/09/04 11:09:11;;;;;;;13.90;2.40;;;;;;;31.99;35.19;101598.69;5052945;28;20107;-69
2022/09/04 11:11:41;;;;;;;3.22;2.15;;;;;;;31.90;35.43;101593.41;5052606;28;20041;-69
2022/09/04 11:14:27;;;;;;;4.47;2.33;;;;;;;31.88;35.66;101590.00;5052744;28;20447;-69
2022/09/04 11:17:12;;;;;;;5.45;1.90;;;;;;;31.86;35.67;101596.88;5071100;28;20079;-69
2022/09/04 11:19:57;;;;;;;2.53;1.42;;;;;;;31.89;35.50;101604.75;5092912;28;20134;-69
2022/09/04 11:22:39;;;;;;;;;;;;;;;31.90;35.53;101604.50;5093068;28;20125;-70
2022/09/04 11:25:37;;;;;;;3.70;1.85;;;;;;;31.84;35.12;101601.81;5072679;28;19942;-69
2022/09/04 11:28:43;;;;;;;3.50;1.65;;;;;;;31.74;35.22;101601.50;5072672;28;20037;-69
2022/09/04 11:31:43;;;;;;;3.60;1.70;;;;;;;31.64;35.33;101604.78;5072691;28;20032;-70
2022/09/04 11:34:47;;;;;;;9.75;1.88;;;;;;;31.55;35.37;101600.59;5074248;28;20056;-68
2022/09/04 11:37:24;;;;;;;3.05;1.88;;;;;;;31.46;35.14;101602.84;5072791;28;20045;-67
2022/09/04 11:40:19;;;;;;;4.38;1.83;;;;;;;31.37;35.52;101598.66;5072461;28;20509;-68
2022/09/04 11:43:42;;;;;;;5.90;1.90;;;;;;;31.36;35.40;101601.66;5072643;28;20380;-67
2022/09/04 11:46:49;;;;;;;2.80;1.67;;;;;;;31.35;35.36;101598.03;4971888;28;20313;-68
2022/09/04 11:49:38;;;;;;;8.52;2.22;;;;;;;31.33;35.54;101596.56;5075734;28;20048;-68
2022/09/04 11:52:15;;;;;;;2.95;1.70;;;;;;;31.29;35.05;101602.56;5092985;28;20051;-67
2022/09/04 11:54:54;;;;;;;1.90;1.30;;;;;;;31.31;35.32;101599.56;5091799;28;20047;-67
2022/09/04 11:57:39;;;;;;;2.42;1.42;;;;;;;31.40;35.44;101600.13;5089390;28;20039;-68
2022/09/04 12:00:11;;;;;;;5.22;1.70;;;;;;;31.56;35.45;101592.06;5071361;28;20059;-67
2022/09/04 12:02:56;;;;;;;2.35;1.60;;;;;;;31.73;35.10;101597.88;5071281;28;20045;-68
2022/09/04 12:05:44;;;;;;;2.17;1.55;;;;;;;31.92;34.72;101607.91;5070962;28;20047;-68
2022/09/04 12:08:40;;;;;;;2.92;1.38;;;;;;;31.96;34.40;101601.88;5071243;28;20051;-68
2022/09/04 12:11:18;;;;;;;6.68;1.42;;;;;;;31.88;34.17;101600.28;5071560;28;20402;-68
2022/09/04 12:14:19;;;;;;;3.80;1.20;;;;;;;31.89;33.89;101590.84;5071108;28;20043;-68
2022/09/04 12:16:58;;;;;;;1.98;1.20;;;;;;;31.96;33.55;101597.22;5060627;28;20052;-67
2022/09/04 12:20:02;;;;;;;2.13;1.20;;;;;;;32.01;33.40;101602.91;5071541;28;20048;-68
2022/09/04 12:23:01;;;;;;;4.43;1.60;;;;;;;32.09;33.50;101602.59;5072174;28;20124;-68
2022/09/04 12:26:04;;;;;;;1.60;1.00;;;;;;;32.22;33.16;101609.91;5071269;28;20047;-68
2022/09/04 12:28:54;;;;;;;2.55;1.40;;;;;;;32.34;32.81;101601.66;5071178;28;20517;-68
2022/09/04 12:31:35;;;;;;;2.58;1.30;;;;;;;32.45;32.76;101603.66;5071131;28;20049;-68
2022/09/04 12:34:19;;;;;;;1.48;1.10;;;;;;;32.53;32.49;101608.88;5072224;28;20128;-68
2022/09/04 12:37:00;;;;;;;4.05;1.20;;;;;;;32.57;32.23;101612.88;5079051;28;20044;-68
2022/09/04 12:39:50;;;;;;;3.08;1.40;;;;;;;32.50;32.28;101610.19;5089645;28;20036;-68
2022/09/04 12:42:23;;;;;;;1.60;1.25;;;;;;;32.49;31.92;101608.50;5091077;28;20044;-68
2022/09/04 12:44:49;;;;;;;1.50;1.27;;;;;;;32.54;31.98;101611.44;5090483;28;20240;-67
2022/09/04 12:47:22;;;;;;;3.60;1.50;;;;;;;32.62;31.64;101615.81;5091204;28;20055;-68
2022/09/04 12:50:02;;;;;;;3.78;1.70;;;;;;;32.78;31.42;101609.63;5091249;28;20044;-68
2022/09/04 12:52:46;;;;;;;1.98;1.30;;;;;;;32.95;30.70;101618.16;5087478;28;20054;-68
2022/09/04 12:55:13;;;;;;;;;;;;;;;33.09;30.66;101616.00;5091045;28;20055;-68